PWSweather.com
Personal Weather Stations
Station Observations
46800
XativaES 46800

XativaES 46800

Lat: 38.9917502, Lon: -0.5136488000000554

Elevation: 103

Station Type: Davis Vantage Pro2 Aspirated

http://www.meteoxativa.es/

Latest ConditionsUpdated 11:00:00 AM GMT+01:01 Tuesday, Dec 10, 2019
Currently Today's Max Today's Min Today's Average
Temperature 55.8°F13.2°C 56.9°F13.8°C 44.1°F6.7°C 50.7°F10.4°C
Dew Point 36.9°F2.7°C 38.2°F3.4°C 34.9°F1.6°C 36.5°F2.5°C
Winds Calm Calm 1.2 mph -1.9 kmh - - 0.0 mph 0.0 kmh
Wind Gusts -- 5.8 mph9.3 kmh - -
Humidity 49% 73% 48% 58%
Pressure 30.33 in1027.1 mb 30.34 in1027.4 mb 30.29 in1025.7 mb -
Hour Temp Dew Point Humidity Winds Wind Gusts Pressure Precip Precip Rate Daily Precip Total
11:00 AM 55.8°F13.2°C 36.9°F2.7°C 49% Calm Calm -- 30.33 in1027.1 mb - 0.00 in0.0 mm 0.00 in0.0 mm
10:45 AM 53.9°F12.2°C 37.6°F3.1°C 54% Calm Calm -- 30.33 in1027.1 mb - 0.00 in0.0 mm 0.00 in0.0 mm
10:30 AM 52.1°F11.2°C 37.7°F3.2°C 58% Calm Calm -- 30.32 in1026.8 mb - 0.00 in0.0 mm 0.00 in0.0 mm
10:15 AM 51.2°F10.7°C 38.2°F3.4°C 61% Calm Calm -- 30.32 in1026.8 mb - 0.00 in0.0 mm 0.00 in0.0 mm
10:00 AM 49.3°F9.6°C 36.4°F2.4°C 61% Calm Calm -- 30.32 in1026.8 mb - 0.00 in0.0 mm 0.00 in0.0 mm
09:45 AM 48.4°F9.1°C 37.2°F2.9°C 65% Calm Calm 1.2 mph1.9 kmh 30.32 in1026.8 mb - 0.00 in0.0 mm 0.00 in0.0 mm
09:30 AM 47.4°F8.6°C 35.4°F1.9°C 63% Calm Calm -- 30.31 in1026.4 mb - 0.00 in0.0 mm 0.00 in0.0 mm
09:15 AM 46.3°F7.9°C 36.0°F2.2°C 67% Calm Calm -- 30.32 in1026.8 mb - 0.00 in0.0 mm 0.00 in0.0 mm
09:00 AM 45.5°F7.5°C 35.5°F1.9°C 68% Calm Calm -- 30.31 in1026.4 mb - 0.00 in0.0 mm 0.00 in0.0 mm
08:45 AM 44.9°F7.2°C 36.0°F2.2°C 71% Calm Calm -- 30.32 in1026.8 mb - 0.00 in0.0 mm 0.00 in0.0 mm
08:30 AM 44.8°F7.1°C 36.0°F2.2°C 71% Calm Calm -- 30.30 in1026.1 mb - 0.00 in0.0 mm 0.00 in0.0 mm
08:15 AM 44.1°F6.7°C 36.0°F2.2°C 73% Calm Calm -- 30.30 in1026.1 mb - 0.00 in0.0 mm 0.00 in0.0 mm
08:00 AM 44.6°F7.0°C 36.2°F2.3°C 72% Calm Calm -- 30.30 in1026.1 mb - 0.00 in0.0 mm 0.00 in0.0 mm
07:45 AM 46.1°F7.8°C 36.8°F2.7°C 70% Calm Calm -- 30.31 in1026.4 mb - 0.00 in0.0 mm 0.00 in0.0 mm
07:30 AM 46.0°F7.8°C 36.4°F2.4°C 69% Calm Calm -- 30.30 in1026.1 mb - 0.00 in0.0 mm 0.00 in0.0 mm
07:15 AM 46.0°F7.8°C 36.4°F2.4°C 69% Calm Calm -- 30.31 in1026.4 mb - 0.00 in0.0 mm 0.00 in0.0 mm
07:00 AM 46.8°F8.2°C 35.7°F2.1°C 65% Calm Calm -- 30.30 in1026.1 mb - 0.00 in0.0 mm 0.00 in0.0 mm
06:45 AM 47.5°F8.6°C 35.9°F2.2°C 64% Calm Calm -- 30.30 in1026.1 mb - 0.00 in0.0 mm 0.00 in0.0 mm
06:30 AM 48.6°F9.2°C 35.7°F2.1°C 61% Calm Calm -- 30.29 in1025.7 mb - 0.00 in0.0 mm 0.00 in0.0 mm
06:15 AM 50.0°F10.0°C 35.3°F1.8°C 57% Calm Calm -- 30.29 in1025.7 mb - 0.00 in0.0 mm 0.00 in0.0 mm
06:00 AM 50.5°F10.3°C 34.9°F1.6°C 55% Calm Calm -- 30.29 in1025.7 mb - 0.00 in0.0 mm 0.00 in0.0 mm
05:45 AM 50.1°F10.1°C 35.8°F2.1°C 58% Calm Calm -- 30.30 in1026.1 mb - 0.00 in0.0 mm 0.00 in0.0 mm
05:30 AM 50.7°F10.4°C 35.1°F1.7°C 55% Calm Calm -- 30.30 in1026.1 mb - 0.00 in0.0 mm 0.00 in0.0 mm
05:15 AM 48.9°F9.4°C 36.5°F2.5°C 62% Calm Calm -- 30.30 in1026.1 mb - 0.00 in0.0 mm 0.00 in0.0 mm
05:00 AM 51.8°F11.0°C 35.6°F2.0°C 54% Calm Calm -- 30.30 in1026.1 mb - 0.00 in0.0 mm 0.00 in0.0 mm
04:45 AM 51.2°F10.7°C 35.1°F1.7°C 54% Calm Calm 1.2 mph1.9 kmh 30.31 in1026.4 mb - 0.00 in0.0 mm 0.00 in0.0 mm
04:30 AM 50.1°F10.1°C 35.9°F2.2°C 58% Calm Calm -- 30.31 in1026.4 mb - 0.00 in0.0 mm 0.00 in0.0 mm
04:15 AM 50.8°F10.4°C 35.6°F2.0°C 56% Calm Calm -- 30.31 in1026.4 mb - 0.00 in0.0 mm 0.00 in0.0 mm
04:00 AM 50.6°F10.3°C 36.3°F2.4°C 58% Calm Calm -- 30.32 in1026.8 mb - 0.00 in0.0 mm 0.00 in0.0 mm
03:45 AM 50.2°F10.1°C 36.9°F2.7°C 60% Calm Calm -- 30.31 in1026.4 mb - 0.00 in0.0 mm 0.00 in0.0 mm
03:30 AM 52.1°F11.2°C 37.3°F2.9°C 57% Calm Calm -- 30.31 in1026.4 mb - 0.00 in0.0 mm 0.00 in0.0 mm
03:15 AM 53.1°F11.7°C 36.4°F2.4°C 53% Calm Calm -- 30.31 in1026.4 mb - 0.00 in0.0 mm 0.00 in0.0 mm
03:00 AM 53.8°F12.1°C 36.6°F2.6°C 52% Calm Calm -- 30.31 in1026.4 mb - 0.00 in0.0 mm 0.00 in0.0 mm
02:45 AM 52.2°F11.2°C 37.0°F2.8°C 56% Calm Calm -- 30.32 in1026.8 mb - 0.00 in0.0 mm 0.00 in0.0 mm
02:30 AM 52.3°F11.3°C 37.0°F2.8°C 56% Calm Calm -- 30.32 in1026.8 mb - 0.00 in0.0 mm 0.00 in0.0 mm
02:15 AM 54.7°F12.6°C 37.5°F3.1°C 52% Calm Calm -- 30.32 in1026.8 mb - 0.00 in0.0 mm 0.00 in0.0 mm
02:00 AM 55.3°F12.9°C 36.5°F2.5°C 49% Calm Calm -- 30.31 in1026.4 mb - 0.00 in0.0 mm 0.00 in0.0 mm
01:45 AM 55.1°F12.8°C 36.3°F2.4°C 49% Calm Calm 1.2 mph1.9 kmh 30.32 in1026.8 mb - 0.00 in0.0 mm 0.00 in0.0 mm
01:30 AM 53.9°F12.2°C 37.1°F2.8°C 53% Calm Calm -- 30.33 in1027.1 mb - 0.00 in0.0 mm 0.00 in0.0 mm
01:15 AM 55.3°F12.9°C 38.0°F3.3°C 52% Calm Calm -- 30.33 in1027.1 mb - 0.00 in0.0 mm 0.00 in0.0 mm
01:00 AM 55.8°F13.2°C 36.9°F2.7°C 49% Calm Calm -- 30.32 in1026.8 mb - 0.00 in0.0 mm 0.00 in0.0 mm
12:45 AM 56.3°F13.5°C 37.4°F3.0°C 49% Calm Calm 5.8 mph9.3 kmh 30.33 in1027.1 mb - 0.00 in0.0 mm 0.00 in0.0 mm
12:30 AM 56.6°F13.7°C 37.6°F3.1°C 49% Calm Calm -- 30.32 in1026.8 mb - 0.00 in0.0 mm 0.00 in0.0 mm
12:15 AM 56.1°F13.4°C 37.7°F3.2°C 50% Calm Calm -- 30.34 in1027.4 mb - 0.00 in0.0 mm 0.00 in0.0 mm
12:00 AM 56.9°F13.8°C 37.4°F3.0°C 48% 1.2 mph SW1.9 kmh SW 2.3 mph3.7 kmh 30.33 in1027.1 mb - 0.00 in0.0 mm 0.00 in0.0 mm